Impacts METAR Board INFO
IDs:

KORD - Chicago/O'Hare Intl, IL, US

Updated at: 2123 UTC 23 Jan 2018
Potential Impact None Slight Moderate High
Time23/09Z 23/10Z 23/11Z 23/12Z 23/13Z 23/14Z 23/15Z 23/16Z 23/17Z 23/18Z 23/19Z 23/20Z 23/21Z
VIS9 9 3 3 4 10 10 10 10 10 10 10 10
CIG22 8 26 12 33 14 16 13 16 21 20 22 19
CoverOVCOVCOVCOVCOVCOVCOVCOVCOVCOVCOVCOVCOVC
FltCatMVFRIFRMVFRMVFRMVFRMVFRMVFRMVFRMVFRMVFRMVFRMVFRMVFR
WX-RA-RA-SN BR-SN BR-SN----------------
WDir270290310310320310330320320300310330320
WSpd10 9 12 12 15 12 14 13 14 12 14 12 8
WGst-- -- -- -- 20 -- -- -- -- 19 -- -- --
Raw hourly METARs
KORD 230851Z 27010KT 9SM -RA SCT010 OVC022 02/01 A2951 RMK AO2 SLP997 RAB25 P0001 60001 T00220006 51008
KORD 230951Z 29009KT 9SM -RA OVC008 02/00 A2953 RMK AO2 SLP002 P0002 T00170000
KORD 231051Z 31012KT 3SM -SN BR FEW009 BKN026 OVC046 01/M01 A2956 RMK AO2 RAE02SNB02 SLP015 P0002 T00061011
KORD 231202Z 31012KT 3SM -SN BR BKN012 OVC025 00/M02 A2961 RMK AO2 P0000 T00001017
KORD 231251Z 32015G20KT 4SM -SN FEW010 OVC033 00/M03 A2965 RMK AO2 SLP043 P0001 T00001028
KORD 231351Z 31012KT 10SM BKN014 OVC050 M01/M03 A2969 RMK AO2 SNE41 SLP058 P0000 T10061028
KORD 231451Z 33014KT 10SM OVC016 00/M03 A2973 RMK AO2 SLP072 60001 T00001033 53027
KORD 231551Z 32013KT 10SM OVC013 M01/M03 A2978 RMK AO2 SLP090 T10061033
KORD 231651Z 32014KT 10SM OVC016 M01/M04 A2982 RMK AO2 SLP103 T10111044
KORD 231751Z 30012G19KT 10SM OVC021 M01/M05 A2983 RMK AO2 SLP108 60001 T10111050 10000 21011 51034
KORD 231851Z 31014KT 10SM BKN020 OVC025 M01/M05 A2986 RMK AO2 SLP117 SNB22E48 P0000 T10111050
KORD 231951Z 33012KT 10SM BKN022 OVC035 M01/M06 A2989 RMK AO2 SLP129 T10111056
KORD 232051Z 32008KT 10SM OVC019 M01/M04 A2994 RMK AO2 SLP143 60000 T10061044 53035